sensor_id;sensor_type;location;lat;lon;timestamp;temperature;humidity
15113;DHT22;7657;50.140;7.076;2023-12-20T00:00:21;5.30;99.90
15113;DHT22;7657;50.140;7.076;2023-12-20T00:02:48;5.30;99.90
15113;DHT22;7657;50.140;7.076;2023-12-20T00:05:15;5.30;99.90
15113;DHT22;7657;50.140;7.076;2023-12-20T00:07:42;5.30;99.90
15113;DHT22;7657;50.140;7.076;2023-12-20T00:10:09;5.30;99.90
15113;DHT22;7657;50.140;7.076;2023-12-20T00:12:38;5.30;99.90
15113;DHT22;7657;50.140;7.076;2023-12-20T00:15:08;5.20;99.90
15113;DHT22;7657;50.140;7.076;2023-12-20T00:17:35;5.20;99.90
15113;DHT22;7657;50.140;7.076;2023-12-20T00:20:02;5.30;99.90
15113;DHT22;7657;50.140;7.076;2023-12-20T00:22:29;5.20;99.90
15113;DHT22;7657;50.140;7.076;2023-12-20T00:24:56;5.20;99.90
15113;DHT22;7657;50.140;7.076;2023-12-20T00:27:23;5.30;99.90
15113;DHT22;7657;50.140;7.076;2023-12-20T00:29:49;5.30;99.90
15113;DHT22;7657;50.140;7.076;2023-12-20T00:32:18;5.30;99.90
15113;DHT22;7657;50.140;7.076;2023-12-20T00:34:45;5.30;99.90
15113;DHT22;7657;50.140;7.076;2023-12-20T00:37:12;5.30;99.90
15113;DHT22;7657;50.140;7.076;2023-12-20T00:39:38;5.30;99.90
15113;DHT22;7657;50.140;7.076;2023-12-20T00:42:05;5.30;99.90
15113;DHT22;7657;50.140;7.076;2023-12-20T00:44:32;5.30;99.90
15113;DHT22;7657;50.140;7.076;2023-12-20T00:46:59;5.20;99.90
15113;DHT22;7657;50.140;7.076;2023-12-20T00:49:28;5.30;99.90
15113;DHT22;7657;50.140;7.076;2023-12-20T00:51:55;5.30;99.90
15113;DHT22;7657;50.140;7.076;2023-12-20T00:54:22;5.40;99.90
15113;DHT22;7657;50.140;7.076;2023-12-20T00:56:48;5.40;99.90
15113;DHT22;7657;50.140;7.076;2023-12-20T00:59:16;5.40;99.90
15113;DHT22;7657;50.140;7.076;2023-12-20T01:01:43;5.40;99.90
15113;DHT22;7657;50.140;7.076;2023-12-20T01:04:10;5.40;99.90
15113;DHT22;7657;50.140;7.076;2023-12-20T01:06:38;5.40;99.90
15113;DHT22;7657;50.140;7.076;2023-12-20T01:09:05;5.40;99.90
15113;DHT22;7657;50.140;7.076;2023-12-20T01:11:32;5.40;99.90
15113;DHT22;7657;50.140;7.076;2023-12-20T01:13:59;5.30;99.90
15113;DHT22;7657;50.140;7.076;2023-12-20T01:16:26;5.30;99.90
15113;DHT22;7657;50.140;7.076;2023-12-20T01:18:53;5.30;99.90
15113;DHT22;7657;50.140;7.076;2023-12-20T01:21:20;5.30;99.90
15113;DHT22;7657;50.140;7.076;2023-12-20T01:23:48;5.30;99.90
15113;DHT22;7657;50.140;7.076;2023-12-20T01:26:15;5.30;99.90
15113;DHT22;7657;50.140;7.076;2023-12-20T01:28:42;5.40;99.90
15113;DHT22;7657;50.140;7.076;2023-12-20T01:31:09;5.40;99.90
15113;DHT22;7657;50.140;7.076;2023-12-20T01:33:36;5.30;99.90
15113;DHT22;7657;50.140;7.076;2023-12-20T01:36:03;5.40;99.90
15113;DHT22;7657;50.140;7.076;2023-12-20T01:38:30;5.40;99.90
15113;DHT22;7657;50.140;7.076;2023-12-20T01:40:59;5.50;99.90
15113;DHT22;7657;50.140;7.076;2023-12-20T01:43:26;5.50;99.90
15113;DHT22;7657;50.140;7.076;2023-12-20T01:45:53;5.60;99.90
15113;DHT22;7657;50.140;7.076;2023-12-20T01:48:22;5.50;99.90
15113;DHT22;7657;50.140;7.076;2023-12-20T01:50:51;5.50;99.90
15113;DHT22;7657;50.140;7.076;2023-12-20T01:53:20;5.40;99.90
15113;DHT22;7657;50.140;7.076;2023-12-20T01:55:50;5.40;99.90
15113;DHT22;7657;50.140;7.076;2023-12-20T01:58:19;5.40;99.90
15113;DHT22;7657;50.140;7.076;2023-12-20T02:00:47;5.40;99.90
15113;DHT22;7657;50.140;7.076;2023-12-20T02:03:14;5.40;99.90
15113;DHT22;7657;50.140;7.076;2023-12-20T02:05:41;5.50;99.90
15113;DHT22;7657;50.140;7.076;2023-12-20T02:08:08;5.50;99.90
15113;DHT22;7657;50.140;7.076;2023-12-20T02:10:35;5.50;99.90
15113;DHT22;7657;50.140;7.076;2023-12-20T02:13:02;5.50;99.90
15113;DHT22;7657;50.140;7.076;2023-12-20T02:15:31;5.60;99.90
15113;DHT22;7657;50.140;7.076;2023-12-20T02:17:58;5.70;99.90
15113;DHT22;7657;50.140;7.076;2023-12-20T02:20:25;5.60;99.90
15113;DHT22;7657;50.140;7.076;2023-12-20T02:22:53;5.60;99.90
15113;DHT22;7657;50.140;7.076;2023-12-20T02:25:20;5.60;99.90
15113;DHT22;7657;50.140;7.076;2023-12-20T02:27:48;5.70;99.90
15113;DHT22;7657;50.140;7.076;2023-12-20T02:30:16;5.60;99.90
15113;DHT22;7657;50.140;7.076;2023-12-20T02:32:43;5.60;99.90
15113;DHT22;7657;50.140;7.076;2023-12-20T02:35:10;5.60;99.90
15113;DHT22;7657;50.140;7.076;2023-12-20T02:37:37;5.70;99.90
15113;DHT22;7657;50.140;7.076;2023-12-20T02:40:07;5.80;99.90
15113;DHT22;7657;50.140;7.076;2023-12-20T02:42:34;5.80;99.90
15113;DHT22;7657;50.140;7.076;2023-12-20T02:45:01;5.90;99.90
15113;DHT22;7657;50.140;7.076;2023-12-20T02:47:27;5.90;99.90
15113;DHT22;7657;50.140;7.076;2023-12-20T02:49:55;5.90;99.90
15113;DHT22;7657;50.140;7.076;2023-12-20T02:52:22;5.80;99.90
15113;DHT22;7657;50.140;7.076;2023-12-20T02:54:49;5.70;99.90
15113;DHT22;7657;50.140;7.076;2023-12-20T02:57:17;5.80;99.90
15113;DHT22;7657;50.140;7.076;2023-12-20T02:59:44;5.70;99.90
15113;DHT22;7657;50.140;7.076;2023-12-20T03:02:11;5.70;99.90
15113;DHT22;7657;50.140;7.076;2023-12-20T03:04:38;5.50;99.90
15113;DHT22;7657;50.140;7.076;2023-12-20T03:07:05;5.60;99.90
15113;DHT22;7657;50.140;7.076;2023-12-20T03:09:32;5.50;99.90
15113;DHT22;7657;50.140;7.076;2023-12-20T03:11:59;5.40;99.90
15113;DHT22;7657;50.140;7.076;2023-12-20T03:14:27;5.30;99.90
15113;DHT22;7657;50.140;7.076;2023-12-20T03:16:54;5.10;99.90
15113;DHT22;7657;50.140;7.076;2023-12-20T03:19:21;5.00;99.90
15113;DHT22;7657;50.140;7.076;2023-12-20T03:21:48;4.90;99.90
15113;DHT22;7657;50.140;7.076;2023-12-20T03:24:15;4.80;99.90
15113;DHT22;7657;50.140;7.076;2023-12-20T03:26:42;4.80;99.90
15113;DHT22;7657;50.140;7.076;2023-12-20T03:29:09;4.70;99.90
15113;DHT22;7657;50.140;7.076;2023-12-20T03:31:37;4.70;99.90
15113;DHT22;7657;50.140;7.076;2023-12-20T03:34:04;4.70;99.90
15113;DHT22;7657;50.140;7.076;2023-12-20T03:36:31;4.80;99.90
15113;DHT22;7657;50.140;7.076;2023-12-20T03:38:58;4.70;99.90
15113;DHT22;7657;50.140;7.076;2023-12-20T03:41:25;4.70;99.90
15113;DHT22;7657;50.140;7.076;2023-12-20T03:43:52;4.80;99.90
15113;DHT22;7657;50.140;7.076;2023-12-20T03:46:19;4.60;99.90
15113;DHT22;7657;50.140;7.076;2023-12-20T03:48:47;4.60;99.90
15113;DHT22;7657;50.140;7.076;2023-12-20T03:51:14;4.60;99.90
15113;DHT22;7657;50.140;7.076;2023-12-20T03:53:41;4.70;99.90
15113;DHT22;7657;50.140;7.076;2023-12-20T03:56:08;4.70;99.90
15113;DHT22;7657;50.140;7.076;2023-12-20T03:58:35;4.60;99.90
15113;DHT22;7657;50.140;7.076;2023-12-20T04:01:02;4.70;99.90
15113;DHT22;7657;50.140;7.076;2023-12-20T04:03:29;4.70;99.90
15113;DHT22;7657;50.140;7.076;2023-12-20T04:05:57;4.70;99.90
15113;DHT22;7657;50.140;7.076;2023-12-20T04:08:24;4.70;99.90
15113;DHT22;7657;50.140;7.076;2023-12-20T04:10:51;4.50;99.90
15113;DHT22;7657;50.140;7.076;2023-12-20T04:13:18;4.40;99.90
15113;DHT22;7657;50.140;7.076;2023-12-20T04:15:45;4.40;99.90
15113;DHT22;7657;50.140;7.076;2023-12-20T04:18:12;4.40;99.90
15113;DHT22;7657;50.140;7.076;2023-12-20T04:20:39;4.50;99.90
15113;DHT22;7657;50.140;7.076;2023-12-20T04:23:07;4.40;99.90
15113;DHT22;7657;50.140;7.076;2023-12-20T04:25:34;4.40;99.90
15113;DHT22;7657;50.140;7.076;2023-12-20T04:28:01;4.50;99.90
15113;DHT22;7657;50.140;7.076;2023-12-20T04:30:28;4.60;99.90
15113;DHT22;7657;50.140;7.076;2023-12-20T04:32:55;4.60;99.90
15113;DHT22;7657;50.140;7.076;2023-12-20T04:35:22;4.70;99.90
15113;DHT22;7657;50.140;7.076;2023-12-20T04:37:49;4.80;99.90
15113;DHT22;7657;50.140;7.076;2023-12-20T04:40:18;4.80;99.90
15113;DHT22;7657;50.140;7.076;2023-12-20T04:42:44;4.90;99.90
15113;DHT22;7657;50.140;7.076;2023-12-20T04:45:11;4.90;99.90
15113;DHT22;7657;50.140;7.076;2023-12-20T04:47:41;4.90;99.90
15113;DHT22;7657;50.140;7.076;2023-12-20T04:50:08;5.00;99.90
15113;DHT22;7657;50.140;7.076;2023-12-20T04:52:36;5.10;99.90
15113;DHT22;7657;50.140;7.076;2023-12-20T04:55:04;5.00;99.90
15113;DHT22;7657;50.140;7.076;2023-12-20T04:57:32;5.10;99.90
15113;DHT22;7657;50.140;7.076;2023-12-20T04:59:59;5.10;99.90
15113;DHT22;7657;50.140;7.076;2023-12-20T05:02:26;5.10;99.90
15113;DHT22;7657;50.140;7.076;2023-12-20T05:04:53;5.20;99.90
15113;DHT22;7657;50.140;7.076;2023-12-20T05:07:20;5.20;99.90
15113;DHT22;7657;50.140;7.076;2023-12-20T05:09:47;5.20;99.90
15113;DHT22;7657;50.140;7.076;2023-12-20T05:12:14;5.20;99.90
15113;DHT22;7657;50.140;7.076;2023-12-20T05:14:42;5.20;99.90
15113;DHT22;7657;50.140;7.076;2023-12-20T05:17:09;5.20;99.90
15113;DHT22;7657;50.140;7.076;2023-12-20T05:19:36;5.20;99.90
15113;DHT22;7657;50.140;7.076;2023-12-20T05:22:03;5.10;99.90
15113;DHT22;7657;50.140;7.076;2023-12-20T05:24:30;5.00;99.90
15113;DHT22;7657;50.140;7.076;2023-12-20T05:26:57;4.90;99.90
15113;DHT22;7657;50.140;7.076;2023-12-20T05:29:24;5.00;99.90
15113;DHT22;7657;50.140;7.076;2023-12-20T05:31:53;4.90;99.90
15113;DHT22;7657;50.140;7.076;2023-12-20T05:34:20;4.90;99.90
15113;DHT22;7657;50.140;7.076;2023-12-20T05:36:47;4.80;99.90
15113;DHT22;7657;50.140;7.076;2023-12-20T05:39:14;4.90;99.90
15113;DHT22;7657;50.140;7.076;2023-12-20T05:41:41;4.90;99.90
15113;DHT22;7657;50.140;7.076;2023-12-20T05:44:08;4.80;99.90
15113;DHT22;7657;50.140;7.076;2023-12-20T05:46:36;4.80;99.90
15113;DHT22;7657;50.140;7.076;2023-12-20T05:49:04;4.90;99.90
15113;DHT22;7657;50.140;7.076;2023-12-20T05:51:31;4.90;99.90
15113;DHT22;7657;50.140;7.076;2023-12-20T05:53:58;4.80;99.90
15113;DHT22;7657;50.140;7.076;2023-12-20T05:56:25;4.70;99.90
15113;DHT22;7657;50.140;7.076;2023-12-20T05:58:52;4.70;99.90
15113;DHT22;7657;50.140;7.076;2023-12-20T06:01:18;4.70;99.90
15113;DHT22;7657;50.140;7.076;2023-12-20T06:03:45;4.70;99.90
15113;DHT22;7657;50.140;7.076;2023-12-20T06:06:14;4.60;99.90
15113;DHT22;7657;50.140;7.076;2023-12-20T06:08:41;4.50;99.90
15113;DHT22;7657;50.140;7.076;2023-12-20T06:11:09;4.50;99.90
15113;DHT22;7657;50.140;7.076;2023-12-20T06:13:35;4.50;99.90
15113;DHT22;7657;50.140;7.076;2023-12-20T06:16:04;4.50;99.90
15113;DHT22;7657;50.140;7.076;2023-12-20T06:18:32;4.60;99.90
15113;DHT22;7657;50.140;7.076;2023-12-20T06:20:59;4.50;99.90
15113;DHT22;7657;50.140;7.076;2023-12-20T06:23:27;4.60;99.90
15113;DHT22;7657;50.140;7.076;2023-12-20T06:25:54;4.60;99.90
15113;DHT22;7657;50.140;7.076;2023-12-20T06:28:21;4.50;99.90
15113;DHT22;7657;50.140;7.076;2023-12-20T06:30:47;4.50;99.90
15113;DHT22;7657;50.140;7.076;2023-12-20T06:33:15;4.50;99.90
15113;DHT22;7657;50.140;7.076;2023-12-20T06:35:44;4.40;99.90
15113;DHT22;7657;50.140;7.076;2023-12-20T06:38:11;4.50;99.90
15113;DHT22;7657;50.140;7.076;2023-12-20T06:40:39;4.40;99.90
15113;DHT22;7657;50.140;7.076;2023-12-20T06:43:08;4.50;99.90
15113;DHT22;7657;50.140;7.076;2023-12-20T06:45:35;4.50;99.90
15113;DHT22;7657;50.140;7.076;2023-12-20T06:48:02;4.40;99.90
15113;DHT22;7657;50.140;7.076;2023-12-20T06:50:29;4.50;99.90
15113;DHT22;7657;50.140;7.076;2023-12-20T06:52:56;4.50;99.90
15113;DHT22;7657;50.140;7.076;2023-12-20T06:55:23;4.50;99.90
15113;DHT22;7657;50.140;7.076;2023-12-20T06:57:51;4.40;99.90
15113;DHT22;7657;50.140;7.076;2023-12-20T07:00:18;4.40;99.90
15113;DHT22;7657;50.140;7.076;2023-12-20T07:02:46;4.40;99.90
15113;DHT22;7657;50.140;7.076;2023-12-20T07:05:16;4.40;99.90
15113;DHT22;7657;50.140;7.076;2023-12-20T07:07:45;4.40;99.90
15113;DHT22;7657;50.140;7.076;2023-12-20T07:10:12;4.40;99.90
15113;DHT22;7657;50.140;7.076;2023-12-20T07:12:39;4.40;99.90
15113;DHT22;7657;50.140;7.076;2023-12-20T07:15:08;4.50;99.90
15113;DHT22;7657;50.140;7.076;2023-12-20T07:17:35;4.50;99.90
15113;DHT22;7657;50.140;7.076;2023-12-20T07:20:02;4.40;99.90
15113;DHT22;7657;50.140;7.076;2023-12-20T07:22:30;4.50;99.90
15113;DHT22;7657;50.140;7.076;2023-12-20T07:24:57;4.50;99.90
15113;DHT22;7657;50.140;7.076;2023-12-20T07:27:24;4.40;99.90
15113;DHT22;7657;50.140;7.076;2023-12-20T07:29:51;4.40;99.90
15113;DHT22;7657;50.140;7.076;2023-12-20T07:32:19;4.40;99.90
15113;DHT22;7657;50.140;7.076;2023-12-20T07:34:46;4.40;99.90
15113;DHT22;7657;50.140;7.076;2023-12-20T07:37:13;4.40;99.90
15113;DHT22;7657;50.140;7.076;2023-12-20T07:39:41;4.40;99.90
15113;DHT22;7657;50.140;7.076;2023-12-20T07:42:08;4.40;99.90
15113;DHT22;7657;50.140;7.076;2023-12-20T07:44:35;4.50;99.90
15113;DHT22;7657;50.140;7.076;2023-12-20T07:47:02;4.50;99.90
15113;DHT22;7657;50.140;7.076;2023-12-20T07:49:31;4.50;99.90
15113;DHT22;7657;50.140;7.076;2023-12-20T07:51:58;4.50;99.90
15113;DHT22;7657;50.140;7.076;2023-12-20T07:54:25;4.60;99.90
15113;DHT22;7657;50.140;7.076;2023-12-20T07:56:52;4.50;99.90
15113;DHT22;7657;50.140;7.076;2023-12-20T07:59:19;4.50;99.90
15113;DHT22;7657;50.140;7.076;2023-12-20T08:01:46;4.40;99.90
15113;DHT22;7657;50.140;7.076;2023-12-20T08:04:13;4.40;99.90
15113;DHT22;7657;50.140;7.076;2023-12-20T08:06:41;4.40;99.90
15113;DHT22;7657;50.140;7.076;2023-12-20T08:09:08;4.40;99.90
15113;DHT22;7657;50.140;7.076;2023-12-20T08:11:36;4.50;99.90
15113;DHT22;7657;50.140;7.076;2023-12-20T08:14:02;4.50;99.90
15113;DHT22;7657;50.140;7.076;2023-12-20T08:16:29;4.60;99.90
15113;DHT22;7657;50.140;7.076;2023-12-20T08:18:56;4.60;99.90
15113;DHT22;7657;50.140;7.076;2023-12-20T08:21:23;4.60;99.90
15113;DHT22;7657;50.140;7.076;2023-12-20T08:23:51;4.60;99.90
15113;DHT22;7657;50.140;7.076;2023-12-20T08:26:19;4.70;99.90
15113;DHT22;7657;50.140;7.076;2023-12-20T08:28:47;4.60;99.90
15113;DHT22;7657;50.140;7.076;2023-12-20T08:31:14;4.70;99.90
15113;DHT22;7657;50.140;7.076;2023-12-20T08:33:43;4.70;99.90
15113;DHT22;7657;50.140;7.076;2023-12-20T08:36:10;4.60;99.90
15113;DHT22;7657;50.140;7.076;2023-12-20T08:38:37;4.70;99.90
15113;DHT22;7657;50.140;7.076;2023-12-20T08:41:06;4.70;99.90
15113;DHT22;7657;50.140;7.076;2023-12-20T08:43:34;4.80;99.90
15113;DHT22;7657;50.140;7.076;2023-12-20T08:46:01;4.80;99.90
15113;DHT22;7657;50.140;7.076;2023-12-20T08:48:28;5.00;99.90
15113;DHT22;7657;50.140;7.076;2023-12-20T08:50:55;5.00;99.90
15113;DHT22;7657;50.140;7.076;2023-12-20T08:53:22;5.00;99.90
15113;DHT22;7657;50.140;7.076;2023-12-20T08:55:50;5.00;99.90
15113;DHT22;7657;50.140;7.076;2023-12-20T08:58:20;4.90;99.90
15113;DHT22;7657;50.140;7.076;2023-12-20T09:00:47;4.90;99.90
15113;DHT22;7657;50.140;7.076;2023-12-20T09:03:13;5.00;99.90
15113;DHT22;7657;50.140;7.076;2023-12-20T09:05:40;5.00;99.90
15113;DHT22;7657;50.140;7.076;2023-12-20T09:08:07;5.10;99.90
15113;DHT22;7657;50.140;7.076;2023-12-20T09:10:36;5.10;99.90
15113;DHT22;7657;50.140;7.076;2023-12-20T09:13:04;5.10;99.90
15113;DHT22;7657;50.140;7.076;2023-12-20T09:15:32;5.10;99.90
15113;DHT22;7657;50.140;7.076;2023-12-20T09:17:59;5.10;99.90
15113;DHT22;7657;50.140;7.076;2023-12-20T09:20:26;5.10;99.90
15113;DHT22;7657;50.140;7.076;2023-12-20T09:22:53;5.10;99.90
15113;DHT22;7657;50.140;7.076;2023-12-20T09:25:20;5.10;99.90
15113;DHT22;7657;50.140;7.076;2023-12-20T09:27:48;5.20;99.90
15113;DHT22;7657;50.140;7.076;2023-12-20T09:30:15;5.20;99.90
15113;DHT22;7657;50.140;7.076;2023-12-20T09:32:44;5.30;99.90
15113;DHT22;7657;50.140;7.076;2023-12-20T09:35:11;5.30;99.90
15113;DHT22;7657;50.140;7.076;2023-12-20T09:37:38;5.40;99.90
15113;DHT22;7657;50.140;7.076;2023-12-20T09:40:09;5.40;99.90
15113;DHT22;7657;50.140;7.076;2023-12-20T09:42:42;5.30;99.90
15113;DHT22;7657;50.140;7.076;2023-12-20T09:45:15;5.20;99.90
15113;DHT22;7657;50.140;7.076;2023-12-20T09:47:44;5.30;99.90
15113;DHT22;7657;50.140;7.076;2023-12-20T09:50:12;5.30;99.90
15113;DHT22;7657;50.140;7.076;2023-12-20T09:52:40;5.30;99.90
15113;DHT22;7657;50.140;7.076;2023-12-20T09:55:08;5.30;99.90
15113;DHT22;7657;50.140;7.076;2023-12-20T09:57:35;5.30;99.90
15113;DHT22;7657;50.140;7.076;2023-12-20T10:00:02;5.40;99.90
15113;DHT22;7657;50.140;7.076;2023-12-20T10:02:31;5.50;99.90
15113;DHT22;7657;50.140;7.076;2023-12-20T10:05:01;5.50;99.90
15113;DHT22;7657;50.140;7.076;2023-12-20T10:07:28;5.60;99.90
15113;DHT22;7657;50.140;7.076;2023-12-20T10:09:55;5.50;99.90
15113;DHT22;7657;50.140;7.076;2023-12-20T10:12:23;5.60;99.90
15113;DHT22;7657;50.140;7.076;2023-12-20T10:14:50;5.60;99.90
15113;DHT22;7657;50.140;7.076;2023-12-20T10:17:17;5.50;99.90
15113;DHT22;7657;50.140;7.076;2023-12-20T10:19:44;5.60;99.90
15113;DHT22;7657;50.140;7.076;2023-12-20T10:22:12;5.60;99.90
15113;DHT22;7657;50.140;7.076;2023-12-20T10:24:40;5.60;99.90
15113;DHT22;7657;50.140;7.076;2023-12-20T10:27:08;5.70;99.90
15113;DHT22;7657;50.140;7.076;2023-12-20T10:29:36;5.50;99.90
15113;DHT22;7657;50.140;7.076;2023-12-20T10:32:23;5.60;99.90
15113;DHT22;7657;50.140;7.076;2023-12-20T10:34:50;5.60;99.90
15113;DHT22;7657;50.140;7.076;2023-12-20T10:37:18;5.60;99.90
15113;DHT22;7657;50.140;7.076;2023-12-20T10:39:49;5.60;99.90
15113;DHT22;7657;50.140;7.076;2023-12-20T10:42:18;5.60;99.90
15113;DHT22;7657;50.140;7.076;2023-12-20T10:44:46;5.60;99.90
15113;DHT22;7657;50.140;7.076;2023-12-20T10:47:13;5.50;99.90
15113;DHT22;7657;50.140;7.076;2023-12-20T10:49:42;5.30;99.90
15113;DHT22;7657;50.140;7.076;2023-12-20T10:52:09;5.20;99.90
15113;DHT22;7657;50.140;7.076;2023-12-20T10:54:40;5.20;99.90
15113;DHT22;7657;50.140;7.076;2023-12-20T10:57:07;5.10;99.90
15113;DHT22;7657;50.140;7.076;2023-12-20T10:59:36;5.00;99.90
15113;DHT22;7657;50.140;7.076;2023-12-20T11:02:04;5.00;99.90
15113;DHT22;7657;50.140;7.076;2023-12-20T11:04:39;5.10;99.90
15113;DHT22;7657;50.140;7.076;2023-12-20T11:07:15;5.20;99.90
15113;DHT22;7657;50.140;7.076;2023-12-20T11:09:49;5.20;99.90
15113;DHT22;7657;50.140;7.076;2023-12-20T11:12:28;5.30;99.90
15113;DHT22;7657;50.140;7.076;2023-12-20T11:14:59;5.30;99.90
15113;DHT22;7657;50.140;7.076;2023-12-20T11:17:31;5.40;99.90
15113;DHT22;7657;50.140;7.076;2023-12-20T11:20:06;5.50;99.90
15113;DHT22;7657;50.140;7.076;2023-12-20T11:22:36;5.50;99.90
15113;DHT22;7657;50.140;7.076;2023-12-20T11:25:07;5.50;99.90
15113;DHT22;7657;50.140;7.076;2023-12-20T11:27:35;5.60;99.90
15113;DHT22;7657;50.140;7.076;2023-12-20T11:30:05;5.50;99.90
15113;DHT22;7657;50.140;7.076;2023-12-20T11:32:34;5.50;99.90
15113;DHT22;7657;50.140;7.076;2023-12-20T11:35:16;5.50;99.90
15113;DHT22;7657;50.140;7.076;2023-12-20T11:37:43;5.50;99.90
15113;DHT22;7657;50.140;7.076;2023-12-20T11:40:16;5.60;99.90
15113;DHT22;7657;50.140;7.076;2023-12-20T11:42:44;5.50;99.90
15113;DHT22;7657;50.140;7.076;2023-12-20T11:45:13;5.60;99.90
15113;DHT22;7657;50.140;7.076;2023-12-20T11:47:42;5.70;99.90
15113;DHT22;7657;50.140;7.076;2023-12-20T11:50:10;5.60;99.90
15113;DHT22;7657;50.140;7.076;2023-12-20T11:52:37;5.50;99.90
15113;DHT22;7657;50.140;7.076;2023-12-20T11:55:05;5.50;99.90
15113;DHT22;7657;50.140;7.076;2023-12-20T11:57:34;5.40;99.90
15113;DHT22;7657;50.140;7.076;2023-12-20T12:00:02;5.50;99.90
15113;DHT22;7657;50.140;7.076;2023-12-20T12:02:30;5.50;99.90
15113;DHT22;7657;50.140;7.076;2023-12-20T12:04:57;5.60;99.90
15113;DHT22;7657;50.140;7.076;2023-12-20T12:07:24;5.50;99.90
15113;DHT22;7657;50.140;7.076;2023-12-20T12:09:51;5.50;99.90
15113;DHT22;7657;50.140;7.076;2023-12-20T12:12:19;5.40;99.90
15113;DHT22;7657;50.140;7.076;2023-12-20T12:14:49;5.50;99.90
15113;DHT22;7657;50.140;7.076;2023-12-20T12:17:16;5.50;99.90
15113;DHT22;7657;50.140;7.076;2023-12-20T12:19:44;5.60;99.90
15113;DHT22;7657;50.140;7.076;2023-12-20T12:22:13;5.60;99.90
15113;DHT22;7657;50.140;7.076;2023-12-20T12:24:41;5.60;99.90
15113;DHT22;7657;50.140;7.076;2023-12-20T12:27:09;5.60;99.90
15113;DHT22;7657;50.140;7.076;2023-12-20T12:29:36;5.60;99.90
15113;DHT22;7657;50.140;7.076;2023-12-20T12:32:06;5.50;99.90
15113;DHT22;7657;50.140;7.076;2023-12-20T12:34:33;5.60;99.90
15113;DHT22;7657;50.140;7.076;2023-12-20T12:37:01;5.70;99.90
15113;DHT22;7657;50.140;7.076;2023-12-20T12:39:29;5.80;99.90
15113;DHT22;7657;50.140;7.076;2023-12-20T12:41:56;5.90;99.90
15113;DHT22;7657;50.140;7.076;2023-12-20T12:44:23;6.00;99.90
15113;DHT22;7657;50.140;7.076;2023-12-20T12:46:50;6.00;99.90
15113;DHT22;7657;50.140;7.076;2023-12-20T12:49:20;6.00;99.90
15113;DHT22;7657;50.140;7.076;2023-12-20T12:51:47;6.00;99.90
15113;DHT22;7657;50.140;7.076;2023-12-20T12:54:14;6.00;99.90
15113;DHT22;7657;50.140;7.076;2023-12-20T12:56:42;5.90;99.90
15113;DHT22;7657;50.140;7.076;2023-12-20T12:59:09;5.80;99.90
15113;DHT22;7657;50.140;7.076;2023-12-20T13:01:36;5.80;99.90
15113;DHT22;7657;50.140;7.076;2023-12-20T13:04:04;5.70;99.90
15113;DHT22;7657;50.140;7.076;2023-12-20T13:06:37;5.70;99.90
15113;DHT22;7657;50.140;7.076;2023-12-20T13:09:04;5.70;99.90
15113;DHT22;7657;50.140;7.076;2023-12-20T13:11:31;5.70;99.90
15113;DHT22;7657;50.140;7.076;2023-12-20T13:13:58;5.70;99.90
15113;DHT22;7657;50.140;7.076;2023-12-20T13:16:25;5.70;99.90
15113;DHT22;7657;50.140;7.076;2023-12-20T13:18:52;5.60;99.90
15113;DHT22;7657;50.140;7.076;2023-12-20T13:21:19;5.60;99.90
15113;DHT22;7657;50.140;7.076;2023-12-20T13:23:47;5.70;99.90
15113;DHT22;7657;50.140;7.076;2023-12-20T13:26:14;5.60;99.90
15113;DHT22;7657;50.140;7.076;2023-12-20T13:28:41;5.60;99.90
15113;DHT22;7657;50.140;7.076;2023-12-20T13:31:08;5.60;99.90
15113;DHT22;7657;50.140;7.076;2023-12-20T13:33:35;5.70;99.90
15113;DHT22;7657;50.140;7.076;2023-12-20T13:36:03;5.70;99.90
15113;DHT22;7657;50.140;7.076;2023-12-20T13:38:31;5.60;99.90
15113;DHT22;7657;50.140;7.076;2023-12-20T13:40:59;5.70;99.90
15113;DHT22;7657;50.140;7.076;2023-12-20T13:43:26;5.70;99.90
15113;DHT22;7657;50.140;7.076;2023-12-20T13:45:53;5.80;99.90
15113;DHT22;7657;50.140;7.076;2023-12-20T13:48:20;5.70;99.90
15113;DHT22;7657;50.140;7.076;2023-12-20T13:50:46;5.70;99.90
15113;DHT22;7657;50.140;7.076;2023-12-20T13:53:13;5.70;99.90
15113;DHT22;7657;50.140;7.076;2023-12-20T13:55:40;5.60;99.90
15113;DHT22;7657;50.140;7.076;2023-12-20T13:58:09;5.50;99.90
15113;DHT22;7657;50.140;7.076;2023-12-20T14:00:37;5.50;99.90
15113;DHT22;7657;50.140;7.076;2023-12-20T14:03:04;5.40;99.90
15113;DHT22;7657;50.140;7.076;2023-12-20T14:05:31;5.50;99.90
15113;DHT22;7657;50.140;7.076;2023-12-20T14:07:59;5.40;99.90
15113;DHT22;7657;50.140;7.076;2023-12-20T14:10:26;5.40;99.90
15113;DHT22;7657;50.140;7.076;2023-12-20T14:12:53;5.40;99.90
15113;DHT22;7657;50.140;7.076;2023-12-20T14:15:22;5.40;99.90
15113;DHT22;7657;50.140;7.076;2023-12-20T14:17:51;5.40;99.90
15113;DHT22;7657;50.140;7.076;2023-12-20T14:20:19;5.40;99.90
15113;DHT22;7657;50.140;7.076;2023-12-20T14:22:45;5.40;99.90
15113;DHT22;7657;50.140;7.076;2023-12-20T14:25:13;5.50;99.90
15113;DHT22;7657;50.140;7.076;2023-12-20T14:27:40;5.50;99.90
15113;DHT22;7657;50.140;7.076;2023-12-20T14:30:09;5.50;99.90
15113;DHT22;7657;50.140;7.076;2023-12-20T14:32:40;5.50;99.90
15113;DHT22;7657;50.140;7.076;2023-12-20T14:35:08;5.60;99.90
15113;DHT22;7657;50.140;7.076;2023-12-20T14:37:35;5.50;99.90
15113;DHT22;7657;50.140;7.076;2023-12-20T14:40:05;5.50;99.90
15113;DHT22;7657;50.140;7.076;2023-12-20T14:42:32;5.50;99.90
15113;DHT22;7657;50.140;7.076;2023-12-20T14:44:59;5.50;99.90
15113;DHT22;7657;50.140;7.076;2023-12-20T14:47:26;5.50;99.90
15113;DHT22;7657;50.140;7.076;2023-12-20T14:49:54;5.50;99.90
15113;DHT22;7657;50.140;7.076;2023-12-20T14:52:21;5.40;99.90
15113;DHT22;7657;50.140;7.076;2023-12-20T14:54:48;5.50;99.90
15113;DHT22;7657;50.140;7.076;2023-12-20T14:57:15;5.50;99.90
15113;DHT22;7657;50.140;7.076;2023-12-20T14:59:43;5.40;99.90
15113;DHT22;7657;50.140;7.076;2023-12-20T15:02:10;5.50;99.90
15113;DHT22;7657;50.140;7.076;2023-12-20T15:04:37;5.50;99.90
15113;DHT22;7657;50.140;7.076;2023-12-20T15:07:05;5.50;99.90
15113;DHT22;7657;50.140;7.076;2023-12-20T15:09:32;5.50;99.90
15113;DHT22;7657;50.140;7.076;2023-12-20T15:11:59;5.50;99.90
15113;DHT22;7657;50.140;7.076;2023-12-20T15:14:35;5.60;99.90
15113;DHT22;7657;50.140;7.076;2023-12-20T15:17:02;5.50;99.90
15113;DHT22;7657;50.140;7.076;2023-12-20T15:19:30;5.50;99.90
15113;DHT22;7657;50.140;7.076;2023-12-20T15:21:57;5.50;99.90
15113;DHT22;7657;50.140;7.076;2023-12-20T15:24:24;5.50;99.90
15113;DHT22;7657;50.140;7.076;2023-12-20T15:26:54;5.50;99.90
15113;DHT22;7657;50.140;7.076;2023-12-20T15:29:21;5.40;99.90
15113;DHT22;7657;50.140;7.076;2023-12-20T15:31:49;5.40;99.90
15113;DHT22;7657;50.140;7.076;2023-12-20T15:34:16;5.40;99.90
15113;DHT22;7657;50.140;7.076;2023-12-20T15:36:43;5.30;99.90
15113;DHT22;7657;50.140;7.076;2023-12-20T15:39:10;5.30;99.90
15113;DHT22;7657;50.140;7.076;2023-12-20T15:41:39;5.40;99.90
15113;DHT22;7657;50.140;7.076;2023-12-20T15:44:06;5.40;99.90
15113;DHT22;7657;50.140;7.076;2023-12-20T15:46:33;5.30;99.90
15113;DHT22;7657;50.140;7.076;2023-12-20T15:49:02;5.20;99.90
15113;DHT22;7657;50.140;7.076;2023-12-20T15:51:29;5.20;99.90
15113;DHT22;7657;50.140;7.076;2023-12-20T15:53:55;5.20;99.90
15113;DHT22;7657;50.140;7.076;2023-12-20T15:56:23;5.20;99.90
15113;DHT22;7657;50.140;7.076;2023-12-20T15:58:50;5.20;99.90
15113;DHT22;7657;50.140;7.076;2023-12-20T16:01:20;5.20;99.90
15113;DHT22;7657;50.140;7.076;2023-12-20T16:03:46;5.20;99.90